sensor_id;sensor_type;location;lat;lon;timestamp;pressure;altitude;pressure_sealevel;temperature;humidity
20350;BME280;10332;50.208;18.988;2023-07-20T00:02:14;97304.28;;;23.43;54.27
20350;BME280;10332;50.208;18.988;2023-07-20T00:04:42;97311.47;;;23.30;54.46
20350;BME280;10332;50.208;18.988;2023-07-20T00:07:09;97315.34;;;23.27;55.19
20350;BME280;10332;50.208;18.988;2023-07-20T00:12:04;97324.97;;;23.15;56.64
20350;BME280;10332;50.208;18.988;2023-07-20T00:14:32;97357.16;;;23.13;56.64
20350;BME280;10332;50.208;18.988;2023-07-20T00:16:59;97371.47;;;23.06;57.28
20350;BME280;10332;50.208;18.988;2023-07-20T00:19:28;97379.03;;;22.96;57.81
20350;BME280;10332;50.208;18.988;2023-07-20T00:21:56;97379.03;;;23.09;57.37
20350;BME280;10332;50.208;18.988;2023-07-20T00:24:24;97375.34;;;22.97;57.54
20350;BME280;10332;50.208;18.988;2023-07-20T00:26:51;97377.19;;;22.96;57.36
20350;BME280;10332;50.208;18.988;2023-07-20T00:29:19;97361.94;;;22.77;58.28
20350;BME280;10332;50.208;18.988;2023-07-20T00:31:46;97382.00;;;22.79;58.11
20350;BME280;10332;50.208;18.988;2023-07-20T00:34:18;97389.91;;;22.59;58.24
20350;BME280;10332;50.208;18.988;2023-07-20T00:36:45;97387.66;;;22.56;58.36
20350;BME280;10332;50.208;18.988;2023-07-20T00:39:13;97399.91;;;22.51;58.43
20350;BME280;10332;50.208;18.988;2023-07-20T00:41:40;97406.13;;;22.71;58.06
20350;BME280;10332;50.208;18.988;2023-07-20T00:44:08;97399.44;;;22.41;60.08
20350;BME280;10332;50.208;18.988;2023-07-20T00:46:35;97392.44;;;22.33;61.58
20350;BME280;10332;50.208;18.988;2023-07-20T00:49:03;97400.22;;;22.34;62.39
20350;BME280;10332;50.208;18.988;2023-07-20T00:51:31;97399.75;;;22.24;63.09
20350;BME280;10332;50.208;18.988;2023-07-20T00:53:59;97402.56;;;22.16;64.28
20350;BME280;10332;50.208;18.988;2023-07-20T00:56:26;97405.00;;;22.18;64.30
20350;BME280;10332;50.208;18.988;2023-07-20T00:58:54;97388.84;;;22.19;64.42
20350;BME280;10332;50.208;18.988;2023-07-20T01:01:22;97412.03;;;22.25;64.32
20350;BME280;10332;50.208;18.988;2023-07-20T01:03:50;97390.53;;;22.20;64.20
20350;BME280;10332;50.208;18.988;2023-07-20T01:12:18;97359.59;;;22.13;65.47
20350;BME280;10332;50.208;18.988;2023-07-20T01:14:51;97343.84;;;22.18;64.77
20350;BME280;10332;50.208;18.988;2023-07-20T01:17:18;97342.25;;;22.23;65.22
20350;BME280;10332;50.208;18.988;2023-07-20T01:19:46;97334.28;;;22.23;65.09
20350;BME280;10332;50.208;18.988;2023-07-20T01:28:57;97333.88;;;22.20;65.53
20350;BME280;10332;50.208;18.988;2023-07-20T01:31:36;97334.69;;;22.20;65.62
20350;BME280;10332;50.208;18.988;2023-07-20T01:34:08;97339.91;;;22.07;69.42
20350;BME280;10332;50.208;18.988;2023-07-20T01:36:40;97343.38;;;22.07;67.26
20350;BME280;10332;50.208;18.988;2023-07-20T01:39:10;97347.25;;;22.05;67.47
20350;BME280;10332;50.208;18.988;2023-07-20T01:41:38;97345.41;;;22.05;67.22
20350;BME280;10332;50.208;18.988;2023-07-20T01:44:06;97337.44;;;22.05;67.64
20350;BME280;10332;50.208;18.988;2023-07-20T01:46:33;97336.16;;;22.01;67.87
20350;BME280;10332;50.208;18.988;2023-07-20T01:49:01;97337.16;;;21.94;68.19
20350;BME280;10332;50.208;18.988;2023-07-20T01:51:28;97347.97;;;21.92;68.33
20350;BME280;10332;50.208;18.988;2023-07-20T01:53:56;97349.47;;;21.73;71.47
20350;BME280;10332;50.208;18.988;2023-07-20T01:56:24;97362.03;;;21.58;72.65
20350;BME280;10332;50.208;18.988;2023-07-20T01:58:51;97368.66;;;21.47;72.37
20350;BME280;10332;50.208;18.988;2023-07-20T02:01:19;97367.16;;;21.38;72.89
20350;BME280;10332;50.208;18.988;2023-07-20T02:03:46;97373.44;;;21.31;73.85
20350;BME280;10332;50.208;18.988;2023-07-20T02:06:14;97369.19;;;21.36;72.76
20350;BME280;10332;50.208;18.988;2023-07-20T02:08:41;97378.16;;;21.35;72.48
20350;BME280;10332;50.208;18.988;2023-07-20T02:11:09;97379.38;;;21.33;73.15
20350;BME280;10332;50.208;18.988;2023-07-20T02:13:37;97378.56;;;21.32;72.34
20350;BME280;10332;50.208;18.988;2023-07-20T02:16:04;97378.91;;;21.29;72.89
20350;BME280;10332;50.208;18.988;2023-07-20T02:18:32;97390.38;;;21.30;72.52
20350;BME280;10332;50.208;18.988;2023-07-20T02:21:00;97387.09;;;21.28;72.50
20350;BME280;10332;50.208;18.988;2023-07-20T02:23:29;97402.81;;;21.29;72.65
20350;BME280;10332;50.208;18.988;2023-07-20T02:25:56;97402.94;;;21.21;72.76
20350;BME280;10332;50.208;18.988;2023-07-20T02:28:24;97406.97;;;21.17;72.98
20350;BME280;10332;50.208;18.988;2023-07-20T02:30:51;97396.72;;;21.14;72.85
20350;BME280;10332;50.208;18.988;2023-07-20T02:33:19;97389.00;;;21.19;72.74
20350;BME280;10332;50.208;18.988;2023-07-20T02:35:47;97390.66;;;21.20;73.11
20350;BME280;10332;50.208;18.988;2023-07-20T02:38:14;97391.47;;;21.20;73.12
20350;BME280;10332;50.208;18.988;2023-07-20T02:40:42;97393.13;;;21.21;73.43
20350;BME280;10332;50.208;18.988;2023-07-20T02:43:09;97386.81;;;21.22;73.44
20350;BME280;10332;50.208;18.988;2023-07-20T02:45:40;97379.59;;;21.16;74.52
20350;BME280;10332;50.208;18.988;2023-07-20T02:48:09;97390.03;;;21.18;73.98
20350;BME280;10332;50.208;18.988;2023-07-20T02:50:37;97397.56;;;21.14;73.99
20350;BME280;10332;50.208;18.988;2023-07-20T02:53:05;97399.56;;;21.12;74.06
20350;BME280;10332;50.208;18.988;2023-07-20T02:55:32;97394.63;;;21.09;74.32
20350;BME280;10332;50.208;18.988;2023-07-20T02:58:00;97404.06;;;21.12;74.21
20350;BME280;10332;50.208;18.988;2023-07-20T03:00:27;97402.59;;;21.09;74.51
20350;BME280;10332;50.208;18.988;2023-07-20T03:02:55;97407.28;;;21.07;74.45
20350;BME280;10332;50.208;18.988;2023-07-20T03:05:23;97401.56;;;21.10;74.62
20350;BME280;10332;50.208;18.988;2023-07-20T03:07:55;97406.38;;;21.00;74.69
20350;BME280;10332;50.208;18.988;2023-07-20T03:10:23;97415.78;;;21.03;74.38
20350;BME280;10332;50.208;18.988;2023-07-20T03:12:50;97418.19;;;20.97;74.09
20350;BME280;10332;50.208;18.988;2023-07-20T03:15:18;97433.09;;;20.98;74.09
20350;BME280;10332;50.208;18.988;2023-07-20T03:17:45;97428.63;;;20.99;74.28
20350;BME280;10332;50.208;18.988;2023-07-20T03:20:13;97437.31;;;20.93;74.02
20350;BME280;10332;50.208;18.988;2023-07-20T03:22:41;97447.94;;;20.93;74.16
20350;BME280;10332;50.208;18.988;2023-07-20T03:25:09;97452.25;;;20.94;74.04
20350;BME280;10332;50.208;18.988;2023-07-20T03:27:36;97436.69;;;20.91;73.83
20350;BME280;10332;50.208;18.988;2023-07-20T03:30:05;97456.09;;;20.91;74.19
20350;BME280;10332;50.208;18.988;2023-07-20T03:32:34;97454.81;;;20.87;74.16
20350;BME280;10332;50.208;18.988;2023-07-20T03:35:02;97459.31;;;20.87;74.25
20350;BME280;10332;50.208;18.988;2023-07-20T03:37:29;97464.63;;;20.87;74.03
20350;BME280;10332;50.208;18.988;2023-07-20T03:39:57;97461.38;;;20.91;73.96
20350;BME280;10332;50.208;18.988;2023-07-20T03:42:24;97465.88;;;20.91;73.65
20350;BME280;10332;50.208;18.988;2023-07-20T03:44:52;97465.25;;;20.89;74.02
20350;BME280;10332;50.208;18.988;2023-07-20T03:47:19;97470.03;;;20.79;74.46
20350;BME280;10332;50.208;18.988;2023-07-20T03:49:47;97458.41;;;20.80;74.11
20350;BME280;10332;50.208;18.988;2023-07-20T03:52:14;97451.63;;;20.77;74.53
20350;BME280;10332;50.208;18.988;2023-07-20T03:54:42;97459.84;;;20.82;74.01
20350;BME280;10332;50.208;18.988;2023-07-20T03:57:09;97463.69;;;20.80;74.85
20350;BME280;10332;50.208;18.988;2023-07-20T03:59:38;97462.97;;;20.86;73.86
20350;BME280;10332;50.208;18.988;2023-07-20T04:02:06;97460.75;;;20.89;73.87
20350;BME280;10332;50.208;18.988;2023-07-20T04:04:33;97451.25;;;20.95;73.67
20350;BME280;10332;50.208;18.988;2023-07-20T04:07:01;97460.22;;;20.94;73.56
20350;BME280;10332;50.208;18.988;2023-07-20T04:09:29;97468.81;;;20.96;73.22
20350;BME280;10332;50.208;18.988;2023-07-20T04:11:57;97471.53;;;21.03;73.35
20350;BME280;10332;50.208;18.988;2023-07-20T04:14:24;97482.22;;;21.09;73.12
20350;BME280;10332;50.208;18.988;2023-07-20T04:16:52;97505.00;;;21.18;72.79
20350;BME280;10332;50.208;18.988;2023-07-20T04:19:19;97498.13;;;21.24;72.62
20350;BME280;10332;50.208;18.988;2023-07-20T04:21:47;97483.69;;;21.27;72.51
20350;BME280;10332;50.208;18.988;2023-07-20T04:24:14;97470.13;;;21.21;72.32
20350;BME280;10332;50.208;18.988;2023-07-20T04:26:42;97461.06;;;21.16;72.43
20350;BME280;10332;50.208;18.988;2023-07-20T04:29:10;97468.22;;;21.15;72.66
20350;BME280;10332;50.208;18.988;2023-07-20T04:31:37;97477.63;;;21.18;72.46
20350;BME280;10332;50.208;18.988;2023-07-20T04:34:05;97483.84;;;21.25;72.29
20350;BME280;10332;50.208;18.988;2023-07-20T04:36:32;97468.84;;;21.32;72.52
20350;BME280;10332;50.208;18.988;2023-07-20T04:39:01;97467.72;;;21.41;72.36
20350;BME280;10332;50.208;18.988;2023-07-20T04:41:28;97464.75;;;21.51;72.13
20350;BME280;10332;50.208;18.988;2023-07-20T04:43:56;97464.44;;;21.61;72.05
20350;BME280;10332;50.208;18.988;2023-07-20T04:46:23;97463.22;;;21.63;72.04
20350;BME280;10332;50.208;18.988;2023-07-20T04:48:51;97466.59;;;21.50;72.10
20350;BME280;10332;50.208;18.988;2023-07-20T04:51:19;97469.44;;;21.49;72.10
20350;BME280;10332;50.208;18.988;2023-07-20T04:53:48;97482.53;;;21.50;72.16
20350;BME280;10332;50.208;18.988;2023-07-20T04:56:15;97485.00;;;21.52;72.07
20350;BME280;10332;50.208;18.988;2023-07-20T04:58:43;97497.78;;;21.63;71.99
20350;BME280;10332;50.208;18.988;2023-07-20T05:01:10;97502.38;;;21.54;72.37
20350;BME280;10332;50.208;18.988;2023-07-20T05:03:38;97498.91;;;21.54;72.52
20350;BME280;10332;50.208;18.988;2023-07-20T05:06:07;97498.97;;;21.39;72.96
20350;BME280;10332;50.208;18.988;2023-07-20T05:08:34;97489.91;;;21.19;73.42
20350;BME280;10332;50.208;18.988;2023-07-20T05:11:01;97487.44;;;21.17;73.53
20350;BME280;10332;50.208;18.988;2023-07-20T05:13:29;97499.50;;;21.20;74.29
20350;BME280;10332;50.208;18.988;2023-07-20T05:15:57;97504.94;;;21.27;73.88
20350;BME280;10332;50.208;18.988;2023-07-20T05:18:25;97513.00;;;21.33;73.69
20350;BME280;10332;50.208;18.988;2023-07-20T05:20:52;97514.84;;;21.54;73.95
20350;BME280;10332;50.208;18.988;2023-07-20T05:23:22;97519.41;;;21.60;73.55
20350;BME280;10332;50.208;18.988;2023-07-20T05:25:59;97527.06;;;21.70;73.43
20350;BME280;10332;50.208;18.988;2023-07-20T05:28:27;97531.88;;;21.81;73.50
20350;BME280;10332;50.208;18.988;2023-07-20T05:30:55;97534.97;;;21.63;73.94
20350;BME280;10332;50.208;18.988;2023-07-20T05:33:23;97536.88;;;21.48;74.72
20350;BME280;10332;50.208;18.988;2023-07-20T05:35:50;97540.97;;;21.50;74.55
20350;BME280;10332;50.208;18.988;2023-07-20T05:38:18;97536.88;;;21.48;74.79
20350;BME280;10332;50.208;18.988;2023-07-20T05:40:46;97537.31;;;21.73;73.99
20350;BME280;10332;50.208;18.988;2023-07-20T05:43:14;97534.00;;;21.86;73.53
20350;BME280;10332;50.208;18.988;2023-07-20T05:45:43;97525.34;;;21.83;73.21
20350;BME280;10332;50.208;18.988;2023-07-20T05:48:11;97525.25;;;21.70;73.93
20350;BME280;10332;50.208;18.988;2023-07-20T05:50:42;97526.22;;;21.84;73.22
20350;BME280;10332;50.208;18.988;2023-07-20T05:53:11;97527.88;;;21.92;72.99
20350;BME280;10332;50.208;18.988;2023-07-20T05:55:38;97534.09;;;21.99;72.58
20350;BME280;10332;50.208;18.988;2023-07-20T05:58:07;97531.56;;;21.91;72.86
20350;BME280;10332;50.208;18.988;2023-07-20T06:00:35;97537.78;;;21.98;72.94
20350;BME280;10332;50.208;18.988;2023-07-20T06:03:03;97529.81;;;21.98;72.41
20350;BME280;10332;50.208;18.988;2023-07-20T06:05:30;97535.69;;;21.93;72.61
20350;BME280;10332;50.208;18.988;2023-07-20T06:07:58;97536.84;;;21.84;72.77
20350;BME280;10332;50.208;18.988;2023-07-20T06:10:27;97536.59;;;21.64;73.06
20350;BME280;10332;50.208;18.988;2023-07-20T06:12:55;97539.78;;;21.53;73.54
20350;BME280;10332;50.208;18.988;2023-07-20T06:15:33;97539.53;;;21.48;73.79
20350;BME280;10332;50.208;18.988;2023-07-20T06:18:02;97537.53;;;21.35;74.22
20350;BME280;10332;50.208;18.988;2023-07-20T06:20:31;97533.81;;;21.51;73.62
20350;BME280;10332;50.208;18.988;2023-07-20T06:22:58;97548.66;;;21.45;73.59
20350;BME280;10332;50.208;18.988;2023-07-20T06:25:26;97541.09;;;21.42;73.73
20350;BME280;10332;50.208;18.988;2023-07-20T06:27:55;97542.03;;;21.56;73.78
20350;BME280;10332;50.208;18.988;2023-07-20T06:30:24;97536.56;;;22.00;71.80
20350;BME280;10332;50.208;18.988;2023-07-20T06:32:52;97531.56;;;22.33;70.95
20350;BME280;10332;50.208;18.988;2023-07-20T06:35:19;97524.69;;;22.46;70.09
20350;BME280;10332;50.208;18.988;2023-07-20T06:37:47;97532.63;;;22.67;69.67
20350;BME280;10332;50.208;18.988;2023-07-20T06:40:14;97533.34;;;22.54;70.03
20350;BME280;10332;50.208;18.988;2023-07-20T06:42:45;97527.66;;;22.85;69.10
20350;BME280;10332;50.208;18.988;2023-07-20T06:45:15;97537.59;;;23.05;68.11
20350;BME280;10332;50.208;18.988;2023-07-20T06:47:46;97538.97;;;22.94;66.62
20350;BME280;10332;50.208;18.988;2023-07-20T06:50:13;97533.38;;;23.23;66.77
20350;BME280;10332;50.208;18.988;2023-07-20T06:52:44;97539.97;;;23.34;66.42
20350;BME280;10332;50.208;18.988;2023-07-20T06:55:15;97534.38;;;23.16;66.54
20350;BME280;10332;50.208;18.988;2023-07-20T06:57:50;97544.75;;;23.04;67.31
20350;BME280;10332;50.208;18.988;2023-07-20T07:00:19;97538.63;;;23.04;66.95
20350;BME280;10332;50.208;18.988;2023-07-20T07:02:47;97535.53;;;23.07;67.03
20350;BME280;10332;50.208;18.988;2023-07-20T07:05:17;97538.56;;;23.38;66.54
20350;BME280;10332;50.208;18.988;2023-07-20T07:07:48;97538.34;;;23.33;66.57
20350;BME280;10332;50.208;18.988;2023-07-20T07:10:16;97539.53;;;23.24;66.97
20350;BME280;10332;50.208;18.988;2023-07-20T07:12:43;97531.31;;;23.19;67.10
20350;BME280;10332;50.208;18.988;2023-07-20T07:15:11;97535.50;;;23.41;66.71
20350;BME280;10332;50.208;18.988;2023-07-20T07:17:38;97546.22;;;23.55;66.24
20350;BME280;10332;50.208;18.988;2023-07-20T07:20:07;97529.66;;;23.66;65.22
20350;BME280;10332;50.208;18.988;2023-07-20T07:22:47;97541.16;;;23.73;64.03
20350;BME280;10332;50.208;18.988;2023-07-20T07:25:20;97545.28;;;23.89;63.06
20350;BME280;10332;50.208;18.988;2023-07-20T07:27:52;97556.38;;;23.31;63.87
20350;BME280;10332;50.208;18.988;2023-07-20T07:30:20;97558.84;;;23.39;63.43
20350;BME280;10332;50.208;18.988;2023-07-20T07:32:49;97557.56;;;23.22;62.59
20350;BME280;10332;50.208;18.988;2023-07-20T07:35:16;97559.78;;;23.60;62.30
20350;BME280;10332;50.208;18.988;2023-07-20T07:37:44;97557.84;;;24.15;61.23
20350;BME280;10332;50.208;18.988;2023-07-20T07:40:32;97563.66;;;24.38;59.85
20350;BME280;10332;50.208;18.988;2023-07-20T07:43:00;97573.03;;;24.21;59.96
20350;BME280;10332;50.208;18.988;2023-07-20T07:45:28;97564.06;;;24.48;59.51
20350;BME280;10332;50.208;18.988;2023-07-20T07:47:56;97562.00;;;24.63;59.08
20350;BME280;10332;50.208;18.988;2023-07-20T07:50:24;97557.44;;;24.84;58.65
20350;BME280;10332;50.208;18.988;2023-07-20T07:52:52;97566.50;;;24.56;59.08
20350;BME280;10332;50.208;18.988;2023-07-20T07:55:19;97563.22;;;24.74;58.58
20350;BME280;10332;50.208;18.988;2023-07-20T07:57:47;97574.03;;;25.12;58.01
20350;BME280;10332;50.208;18.988;2023-07-20T08:00:15;97566.75;;;25.39;57.04
20350;BME280;10332;50.208;18.988;2023-07-20T08:02:46;97566.44;;;25.74;56.14
20350;BME280;10332;50.208;18.988;2023-07-20T08:05:15;97575.81;;;25.38;55.23
20350;BME280;10332;50.208;18.988;2023-07-20T08:07:43;97580.06;;;24.75;56.04
20350;BME280;10332;50.208;18.988;2023-07-20T08:10:12;97575.31;;;24.44;57.24
20350;BME280;10332;50.208;18.988;2023-07-20T08:12:39;97581.00;;;24.07;58.87
20350;BME280;10332;50.208;18.988;2023-07-20T08:15:10;97587.41;;;24.20;58.56
20350;BME280;10332;50.208;18.988;2023-07-20T08:17:38;97568.16;;;24.57;57.86
20350;BME280;10332;50.208;18.988;2023-07-20T08:20:08;97572.25;;;24.73;57.12
20350;BME280;10332;50.208;18.988;2023-07-20T08:22:39;97580.88;;;24.82;57.57
20350;BME280;10332;50.208;18.988;2023-07-20T08:25:07;97577.06;;;25.36;56.54
20350;BME280;10332;50.208;18.988;2023-07-20T08:27:37;97582.38;;;25.94;54.92
20350;BME280;10332;50.208;18.988;2023-07-20T08:30:06;97573.09;;;25.96;54.48
20350;BME280;10332;50.208;18.988;2023-07-20T08:32:34;97581.41;;;26.13;54.64
20350;BME280;10332;50.208;18.988;2023-07-20T08:35:01;97573.22;;;26.40;53.94
20350;BME280;10332;50.208;18.988;2023-07-20T08:37:29;97584.25;;;26.25;53.61
20350;BME280;10332;50.208;18.988;2023-07-20T08:39:56;97580.53;;;26.51;53.57
20350;BME280;10332;50.208;18.988;2023-07-20T08:42:25;97593.09;;;26.25;53.85
20350;BME280;10332;50.208;18.988;2023-07-20T08:44:54;97601.75;;;25.89;54.35
20350;BME280;10332;50.208;18.988;2023-07-20T08:47:25;97602.78;;;25.24;55.85
20350;BME280;10332;50.208;18.988;2023-07-20T08:49:55;97603.00;;;25.15;56.42
20350;BME280;10332;50.208;18.988;2023-07-20T08:52:23;97594.72;;;25.43;56.11
20350;BME280;10332;50.208;18.988;2023-07-20T08:54:52;97603.09;;;26.05;54.64
20350;BME280;10332;50.208;18.988;2023-07-20T08:57:22;97586.50;;;26.21;54.40
20350;BME280;10332;50.208;18.988;2023-07-20T08:59:51;97590.34;;;25.56;55.32
20350;BME280;10332;50.208;18.988;2023-07-20T09:02:25;97593.78;;;25.76;55.08
20350;BME280;10332;50.208;18.988;2023-07-20T09:04:54;97591.66;;;25.91;54.70
20350;BME280;10332;50.208;18.988;2023-07-20T09:07:22;97597.16;;;26.35;54.09
20350;BME280;10332;50.208;18.988;2023-07-20T09:09:51;97592.09;;;26.20;54.04
20350;BME280;10332;50.208;18.988;2023-07-20T09:12:19;97596.31;;;26.34;53.32
20350;BME280;10332;50.208;18.988;2023-07-20T09:14:47;97596.53;;;26.64;52.34
20350;BME280;10332;50.208;18.988;2023-07-20T09:17:15;97588.75;;;27.24;51.66
20350;BME280;10332;50.208;18.988;2023-07-20T09:19:50;97587.84;;;27.49;51.58
20350;BME280;10332;50.208;18.988;2023-07-20T09:22:18;97597.38;;;27.81;50.69
20350;BME280;10332;50.208;18.988;2023-07-20T09:24:45;97591.09;;;28.17;48.92
20350;BME280;10332;50.208;18.988;2023-07-20T09:27:13;97582.88;;;28.12;48.54
20350;BME280;10332;50.208;18.988;2023-07-20T09:29:51;97584.28;;;27.73;49.73
20350;BME280;10332;50.208;18.988;2023-07-20T09:32:21;97587.75;;;27.55;49.83
20350;BME280;10332;50.208;18.988;2023-07-20T09:34:52;97590.53;;;27.67;50.16
20350;BME280;10332;50.208;18.988;2023-07-20T09:37:23;97591.19;;;27.81;49.62
20350;BME280;10332;50.208;18.988;2023-07-20T09:39:52;97584.78;;;27.63;49.29
20350;BME280;10332;50.208;18.988;2023-07-20T09:42:23;97577.50;;;27.70;49.31
20350;BME280;10332;50.208;18.988;2023-07-20T09:44:56;97588.75;;;27.79;48.81
20350;BME280;10332;50.208;18.988;2023-07-20T09:47:25;97582.03;;;28.95;47.41
20350;BME280;10332;50.208;18.988;2023-07-20T09:49:59;97589.72;;;28.92;47.12
20350;BME280;10332;50.208;18.988;2023-07-20T09:52:35;97587.88;;;27.97;48.35
20350;BME280;10332;50.208;18.988;2023-07-20T09:55:09;97600.94;;;27.57;49.48
20350;BME280;10332;50.208;18.988;2023-07-20T09:57:37;97595.50;;;27.63;50.14
20350;BME280;10332;50.208;18.988;2023-07-20T10:00:07;97583.75;;;28.24;48.93
20350;BME280;10332;50.208;18.988;2023-07-20T10:02:44;97588.19;;;29.19;47.45
20350;BME280;10332;50.208;18.988;2023-07-20T10:05:16;97600.91;;;30.61;45.37
20350;BME280;10332;50.208;18.988;2023-07-20T10:07:48;97593.53;;;31.68;43.23
20350;BME280;10332;50.208;18.988;2023-07-20T10:10:19;97595.16;;;32.39;42.23
20350;BME280;10332;50.208;18.988;2023-07-20T10:12:48;97592.72;;;33.12;41.03
20350;BME280;10332;50.208;18.988;2023-07-20T10:15:32;97597.75;;;32.61;40.96
20350;BME280;10332;50.208;18.988;2023-07-20T10:21:07;97592.72;;;35.73;35.93
20350;BME280;10332;50.208;18.988;2023-07-20T10:23:40;97604.69;;;36.27;35.23
20350;BME280;10332;50.208;18.988;2023-07-20T10:26:09;97604.31;;;37.36;32.59
20350;BME280;10332;50.208;18.988;2023-07-20T10:28:38;97597.81;;;36.39;32.54
20350;BME280;10332;50.208;18.988;2023-07-20T10:31:12;97615.47;;;34.67;34.85
20350;BME280;10332;50.208;18.988;2023-07-20T10:33:42;97600.13;;;33.79;35.79
20350;BME280;10332;50.208;18.988;2023-07-20T10:36:11;97607.38;;;32.20;38.37
20350;BME280;10332;50.208;18.988;2023-07-20T10:38:42;97598.53;;;33.89;36.27
20350;BME280;10332;50.208;18.988;2023-07-20T10:41:21;97588.97;;;36.58;32.75
20350;BME280;10332;50.208;18.988;2023-07-20T10:43:49;97604.03;;;36.45;31.61
20350;BME280;10332;50.208;18.988;2023-07-20T10:49:09;97594.03;;;34.50;35.42
20350;BME280;10332;50.208;18.988;2023-07-20T10:51:42;97600.22;;;34.10;35.73
20350;BME280;10332;50.208;18.988;2023-07-20T10:56:47;97588.59;;;32.62;35.10
20350;BME280;10332;50.208;18.988;2023-07-20T10:59:40;97579.06;;;32.28;35.93
20350;BME280;10332;50.208;18.988;2023-07-20T11:02:08;97585.41;;;32.11;37.15
20350;BME280;10332;50.208;18.988;2023-07-20T11:04:40;97572.25;;;31.93;38.05
20350;BME280;10332;50.208;18.988;2023-07-20T11:07:08;97573.56;;;31.25;37.33
20350;BME280;10332;50.208;18.988;2023-07-20T11:09:37;97568.16;;;30.86;36.02
20350;BME280;10332;50.208;18.988;2023-07-20T11:12:14;97579.50;;;30.71;35.69
20350;BME280;10332;50.208;18.988;2023-07-20T11:15:03;97582.88;;;29.88;35.21
20350;BME280;10332;50.208;18.988;2023-07-20T11:17:32;97583.56;;;29.95;35.83
20350;BME280;10332;50.208;18.988;2023-07-20T11:20:01;97568.38;;;29.60;36.30
20350;BME280;10332;50.208;18.988;2023-07-20T11:22:33;97572.69;;;29.90;37.10
20350;BME280;10332;50.208;18.988;2023-07-20T11:25:01;97580.19;;;29.59;37.33
20350;BME280;10332;50.208;18.988;2023-07-20T11:27:28;97577.38;;;29.66;37.25
20350;BME280;10332;50.208;18.988;2023-07-20T11:29:56;97573.06;;;29.82;37.44
20350;BME280;10332;50.208;18.988;2023-07-20T11:32:24;97561.38;;;30.33;37.76
20350;BME280;10332;50.208;18.988;2023-07-20T11:34:52;97572.81;;;30.40;37.08
20350;BME280;10332;50.208;18.988;2023-07-20T11:37:20;97568.38;;;30.51;37.12
20350;BME280;10332;50.208;18.988;2023-07-20T11:39:47;97563.41;;;30.60;37.57
20350;BME280;10332;50.208;18.988;2023-07-20T11:42:15;97567.44;;;30.74;37.24
20350;BME280;10332;50.208;18.988;2023-07-20T11:44:51;97564.13;;;30.55;37.30
20350;BME280;10332;50.208;18.988;2023-07-20T11:47:19;97561.53;;;30.60;37.09
20350;BME280;10332;50.208;18.988;2023-07-20T11:49:46;97557.94;;;30.88;37.34
20350;BME280;10332;50.208;18.988;2023-07-20T11:52:23;97553.44;;;30.94;37.29
20350;BME280;10332;50.208;18.988;2023-07-20T11:54:58;97552.28;;;30.90;37.24
20350;BME280;10332;50.208;18.988;2023-07-20T11:57:25;97552.94;;;30.97;37.27
20350;BME280;10332;50.208;18.988;2023-07-20T12:00:00;97557.88;;;30.66;37.25
20350;BME280;10332;50.208;18.988;2023-07-20T12:02:29;97544.53;;;30.93;36.93
20350;BME280;10332;50.208;18.988;2023-07-20T12:05:00;97554.00;;;30.45;37.56
20350;BME280;10332;50.208;18.988;2023-07-20T12:07:29;97532.56;;;30.67;37.95
20350;BME280;10332;50.208;18.988;2023-07-20T12:10:09;97549.44;;;30.63;37.74
20350;BME280;10332;50.208;18.988;2023-07-20T12:12:41;97536.63;;;30.53;38.20
20350;BME280;10332;50.208;18.988;2023-07-20T12:15:24;97545.59;;;30.42;36.67
20350;BME280;10332;50.208;18.988;2023-07-20T12:17:56;97537.66;;;30.18;37.99
20350;BME280;10332;50.208;18.988;2023-07-20T12:20:30;97544.06;;;30.12;38.65
20350;BME280;10332;50.208;18.988;2023-07-20T12:23:04;97540.13;;;30.53;38.69
20350;BME280;10332;50.208;18.988;2023-07-20T12:25:47;97544.72;;;30.70;37.91
20350;BME280;10332;50.208;18.988;2023-07-20T12:28:18;97539.06;;;30.71;38.54
20350;BME280;10332;50.208;18.988;2023-07-20T12:30:47;97538.00;;;30.72;38.72
20350;BME280;10332;50.208;18.988;2023-07-20T12:33:24;97533.59;;;30.33;38.38
20350;BME280;10332;50.208;18.988;2023-07-20T12:35:51;97524.47;;;30.34;39.04
20350;BME280;10332;50.208;18.988;2023-07-20T12:38:23;97526.66;;;30.37;38.98
20350;BME280;10332;50.208;18.988;2023-07-20T12:40:51;97532.22;;;30.47;39.27
20350;BME280;10332;50.208;18.988;2023-07-20T12:43:18;97535.25;;;30.34;38.28
20350;BME280;10332;50.208;18.988;2023-07-20T12:45:46;97533.88;;;30.48;37.85
20350;BME280;10332;50.208;18.988;2023-07-20T12:48:13;97541.44;;;30.51;38.45
20350;BME280;10332;50.208;18.988;2023-07-20T12:50:41;97537.53;;;30.42;37.47
20350;BME280;10332;50.208;18.988;2023-07-20T12:53:09;97533.34;;;30.34;37.50
20350;BME280;10332;50.208;18.988;2023-07-20T12:55:38;97522.34;;;30.36;38.67
20350;BME280;10332;50.208;18.988;2023-07-20T12:58:09;97520.22;;;30.38;38.81
20350;BME280;10332;50.208;18.988;2023-07-20T13:00:37;97521.44;;;30.47;37.76
20350;BME280;10332;50.208;18.988;2023-07-20T13:03:04;97534.44;;;29.88;37.31
20350;BME280;10332;50.208;18.988;2023-07-20T13:05:36;97533.88;;;29.57;37.56
20350;BME280;10332;50.208;18.988;2023-07-20T13:08:06;97530.75;;;29.49;38.06
20350;BME280;10332;50.208;18.988;2023-07-20T13:10:38;97526.53;;;29.41;37.53
20350;BME280;10332;50.208;18.988;2023-07-20T13:13:08;97518.63;;;29.63;38.59
20350;BME280;10332;50.208;18.988;2023-07-20T13:15:44;97520.84;;;29.83;38.28
20350;BME280;10332;50.208;18.988;2023-07-20T13:18:12;97523.25;;;29.96;38.11
20350;BME280;10332;50.208;18.988;2023-07-20T13:20:39;97526.03;;;30.01;38.16
20350;BME280;10332;50.208;18.988;2023-07-20T13:23:07;97522.97;;;30.09;38.08
20350;BME280;10332;50.208;18.988;2023-07-20T13:25:35;97515.84;;;30.03;38.31